sensor_id;sensor_type;location;lat;lon;timestamp;P1;durP1;ratioP1;P2;durP2;ratioP2
46613;SDS011;32338;50.430;6.806;2022-10-31T00:01:09;5.00;;;3.55;;
46613;SDS011;32338;50.430;6.806;2022-10-31T00:03:37;9.70;;;3.95;;
46613;SDS011;32338;50.430;6.806;2022-10-31T00:06:04;11.65;;;4.00;;
46613;SDS011;32338;50.430;6.806;2022-10-31T00:08:30;10.15;;;3.92;;
46613;SDS011;32338;50.430;6.806;2022-10-31T00:10:57;14.55;;;4.50;;
46613;SDS011;32338;50.430;6.806;2022-10-31T00:13:25;12.73;;;3.92;;
46613;SDS011;32338;50.430;6.806;2022-10-31T00:15:51;9.18;;;3.70;;
46613;SDS011;32338;50.430;6.806;2022-10-31T00:18:18;8.15;;;3.17;;
46613;SDS011;32338;50.430;6.806;2022-10-31T00:20:45;9.55;;;4.07;;
46613;SDS011;32338;50.430;6.806;2022-10-31T00:23:11;12.73;;;3.88;;
46613;SDS011;32338;50.430;6.806;2022-10-31T00:25:39;6.38;;;3.35;;
46613;SDS011;32338;50.430;6.806;2022-10-31T00:28:07;11.27;;;3.90;;
46613;SDS011;32338;50.430;6.806;2022-10-31T00:30:37;11.30;;;3.17;;
46613;SDS011;32338;50.430;6.806;2022-10-31T00:33:04;13.77;;;3.63;;
46613;SDS011;32338;50.430;6.806;2022-10-31T00:35:30;12.63;;;3.88;;
46613;SDS011;32338;50.430;6.806;2022-10-31T00:37:57;12.90;;;3.50;;
46613;SDS011;32338;50.430;6.806;2022-10-31T00:40:24;8.73;;;3.60;;
46613;SDS011;32338;50.430;6.806;2022-10-31T00:42:51;11.52;;;4.10;;
46613;SDS011;32338;50.430;6.806;2022-10-31T00:45:17;10.63;;;3.58;;
46613;SDS011;32338;50.430;6.806;2022-10-31T00:47:45;12.93;;;4.15;;
46613;SDS011;32338;50.430;6.806;2022-10-31T00:50:12;12.07;;;3.78;;
46613;SDS011;32338;50.430;6.806;2022-10-31T00:52:38;11.38;;;4.20;;
46613;SDS011;32338;50.430;6.806;2022-10-31T00:55:05;10.82;;;3.88;;
46613;SDS011;32338;50.430;6.806;2022-10-31T00:57:32;10.25;;;3.80;;
46613;SDS011;32338;50.430;6.806;2022-10-31T00:59:58;12.80;;;3.70;;
46613;SDS011;32338;50.430;6.806;2022-10-31T01:02:25;9.82;;;3.88;;
46613;SDS011;32338;50.430;6.806;2022-10-31T01:04:53;12.73;;;3.70;;
46613;SDS011;32338;50.430;6.806;2022-10-31T01:07:20;10.15;;;3.85;;
46613;SDS011;32338;50.430;6.806;2022-10-31T01:09:47;6.93;;;3.60;;
46613;SDS011;32338;50.430;6.806;2022-10-31T01:12:13;9.73;;;4.10;;
46613;SDS011;32338;50.430;6.806;2022-10-31T01:14:42;13.43;;;3.85;;
46613;SDS011;32338;50.430;6.806;2022-10-31T01:17:09;8.50;;;4.03;;
46613;SDS011;32338;50.430;6.806;2022-10-31T01:19:36;6.35;;;3.80;;
46613;SDS011;32338;50.430;6.806;2022-10-31T01:22:04;11.10;;;4.00;;
46613;SDS011;32338;50.430;6.806;2022-10-31T01:24:30;14.65;;;3.78;;
46613;SDS011;32338;50.430;6.806;2022-10-31T01:26:57;12.50;;;4.07;;
46613;SDS011;32338;50.430;6.806;2022-10-31T01:29:24;6.93;;;3.58;;
46613;SDS011;32338;50.430;6.806;2022-10-31T01:31:50;14.93;;;4.28;;
46613;SDS011;32338;50.430;6.806;2022-10-31T01:34:17;16.38;;;3.92;;
46613;SDS011;32338;50.430;6.806;2022-10-31T01:36:44;14.10;;;3.55;;
46613;SDS011;32338;50.430;6.806;2022-10-31T01:39:17;15.25;;;3.60;;
46613;SDS011;32338;50.430;6.806;2022-10-31T01:41:45;12.75;;;3.75;;
46613;SDS011;32338;50.430;6.806;2022-10-31T01:47:21;12.75;;;4.30;;
46613;SDS011;32338;50.430;6.806;2022-10-31T01:49:56;11.27;;;4.13;;
46613;SDS011;32338;50.430;6.806;2022-10-31T01:52:26;15.88;;;3.95;;
46613;SDS011;32338;50.430;6.806;2022-10-31T01:54:58;5.35;;;3.53;;
46613;SDS011;32338;50.430;6.806;2022-10-31T01:57:27;16.33;;;3.60;;
46613;SDS011;32338;50.430;6.806;2022-10-31T01:59:56;11.77;;;3.47;;
46613;SDS011;32338;50.430;6.806;2022-10-31T02:02:25;11.38;;;3.45;;
46613;SDS011;32338;50.430;6.806;2022-10-31T02:04:55;8.05;;;3.63;;
46613;SDS011;32338;50.430;6.806;2022-10-31T02:07:25;12.82;;;3.45;;
46613;SDS011;32338;50.430;6.806;2022-10-31T02:09:57;11.93;;;3.45;;
46613;SDS011;32338;50.430;6.806;2022-10-31T02:12:26;15.75;;;4.00;;
46613;SDS011;32338;50.430;6.806;2022-10-31T02:14:54;15.13;;;4.05;;
46613;SDS011;32338;50.430;6.806;2022-10-31T02:17:20;7.15;;;3.45;;
46613;SDS011;32338;50.430;6.806;2022-10-31T02:19:48;10.40;;;4.35;;
46613;SDS011;32338;50.430;6.806;2022-10-31T02:22:23;12.73;;;4.13;;
46613;SDS011;32338;50.430;6.806;2022-10-31T02:25:05;8.85;;;3.45;;
46613;SDS011;32338;50.430;6.806;2022-10-31T02:27:59;12.15;;;3.38;;
46613;SDS011;32338;50.430;6.806;2022-10-31T02:30:52;9.70;;;4.05;;
46613;SDS011;32338;50.430;6.806;2022-10-31T02:33:28;11.18;;;3.70;;
46613;SDS011;32338;50.430;6.806;2022-10-31T02:36:00;9.02;;;4.18;;
46613;SDS011;32338;50.430;6.806;2022-10-31T02:38:36;10.90;;;4.30;;
46613;SDS011;32338;50.430;6.806;2022-10-31T02:41:16;12.48;;;3.53;;
46613;SDS011;32338;50.430;6.806;2022-10-31T02:43:49;8.23;;;3.92;;
46613;SDS011;32338;50.430;6.806;2022-10-31T02:46:27;12.75;;;3.80;;
46613;SDS011;32338;50.430;6.806;2022-10-31T02:49:00;16.23;;;3.88;;
46613;SDS011;32338;50.430;6.806;2022-10-31T02:51:33;7.45;;;3.20;;
46613;SDS011;32338;50.430;6.806;2022-10-31T02:54:00;8.43;;;3.40;;
46613;SDS011;32338;50.430;6.806;2022-10-31T02:56:27;9.52;;;3.38;;
46613;SDS011;32338;50.430;6.806;2022-10-31T02:58:54;11.23;;;3.50;;
46613;SDS011;32338;50.430;6.806;2022-10-31T03:01:33;7.05;;;3.15;;
46613;SDS011;32338;50.430;6.806;2022-10-31T03:04:32;7.72;;;3.08;;
46613;SDS011;32338;50.430;6.806;2022-10-31T03:07:14;10.93;;;3.20;;
46613;SDS011;32338;50.430;6.806;2022-10-31T03:09:52;7.65;;;3.47;;
46613;SDS011;32338;50.430;6.806;2022-10-31T03:12:28;7.88;;;3.53;;
46613;SDS011;32338;50.430;6.806;2022-10-31T03:15:04;6.38;;;3.47;;
46613;SDS011;32338;50.430;6.806;2022-10-31T03:17:41;15.38;;;4.10;;
46613;SDS011;32338;50.430;6.806;2022-10-31T03:20:17;11.48;;;3.72;;
46613;SDS011;32338;50.430;6.806;2022-10-31T03:25:15;9.73;;;3.90;;
46613;SDS011;32338;50.430;6.806;2022-10-31T03:27:44;13.40;;;4.38;;
46613;SDS011;32338;50.430;6.806;2022-10-31T03:30:12;11.73;;;3.67;;
46613;SDS011;32338;50.430;6.806;2022-10-31T03:32:41;9.95;;;3.70;;
46613;SDS011;32338;50.430;6.806;2022-10-31T03:35:12;14.10;;;4.28;;
46613;SDS011;32338;50.430;6.806;2022-10-31T03:37:41;11.80;;;3.90;;
46613;SDS011;32338;50.430;6.806;2022-10-31T03:40:09;8.68;;;4.10;;
46613;SDS011;32338;50.430;6.806;2022-10-31T03:42:39;15.57;;;3.85;;
46613;SDS011;32338;50.430;6.806;2022-10-31T03:45:10;6.90;;;3.75;;
46613;SDS011;32338;50.430;6.806;2022-10-31T03:47:39;13.50;;;4.20;;
46613;SDS011;32338;50.430;6.806;2022-10-31T03:50:09;7.75;;;3.65;;
46613;SDS011;32338;50.430;6.806;2022-10-31T03:52:41;9.15;;;3.78;;
46613;SDS011;32338;50.430;6.806;2022-10-31T03:55:15;16.17;;;3.97;;
46613;SDS011;32338;50.430;6.806;2022-10-31T03:57:44;6.70;;;3.65;;
46613;SDS011;32338;50.430;6.806;2022-10-31T04:00:17;7.38;;;4.00;;
46613;SDS011;32338;50.430;6.806;2022-10-31T04:02:47;12.88;;;3.40;;
46613;SDS011;32338;50.430;6.806;2022-10-31T04:05:19;10.05;;;3.28;;
46613;SDS011;32338;50.430;6.806;2022-10-31T04:07:47;6.57;;;2.92;;
46613;SDS011;32338;50.430;6.806;2022-10-31T04:10:19;6.70;;;3.15;;
46613;SDS011;32338;50.430;6.806;2022-10-31T04:12:48;7.03;;;3.22;;
46613;SDS011;32338;50.430;6.806;2022-10-31T04:15:19;8.30;;;3.08;;
46613;SDS011;32338;50.430;6.806;2022-10-31T04:17:50;12.75;;;3.78;;
46613;SDS011;32338;50.430;6.806;2022-10-31T04:20:28;8.15;;;3.55;;
46613;SDS011;32338;50.430;6.806;2022-10-31T04:22:56;14.93;;;3.70;;
46613;SDS011;32338;50.430;6.806;2022-10-31T04:25:22;10.77;;;3.65;;
46613;SDS011;32338;50.430;6.806;2022-10-31T04:27:49;13.32;;;3.35;;
46613;SDS011;32338;50.430;6.806;2022-10-31T04:30:15;6.25;;;3.28;;
46613;SDS011;32338;50.430;6.806;2022-10-31T04:32:42;12.52;;;2.80;;
46613;SDS011;32338;50.430;6.806;2022-10-31T04:35:10;11.07;;;3.80;;
46613;SDS011;32338;50.430;6.806;2022-10-31T04:37:37;11.45;;;3.28;;
46613;SDS011;32338;50.430;6.806;2022-10-31T04:40:04;10.25;;;3.22;;
46613;SDS011;32338;50.430;6.806;2022-10-31T04:42:31;6.05;;;3.75;;
46613;SDS011;32338;50.430;6.806;2022-10-31T04:44:58;13.32;;;3.13;;
46613;SDS011;32338;50.430;6.806;2022-10-31T04:47:24;7.13;;;3.45;;
46613;SDS011;32338;50.430;6.806;2022-10-31T04:49:51;10.90;;;3.95;;
46613;SDS011;32338;50.430;6.806;2022-10-31T04:52:19;7.25;;;3.33;;
46613;SDS011;32338;50.430;6.806;2022-10-31T04:54:45;9.65;;;3.58;;
46613;SDS011;32338;50.430;6.806;2022-10-31T04:57:12;10.75;;;3.22;;
46613;SDS011;32338;50.430;6.806;2022-10-31T04:59:39;11.32;;;3.28;;
46613;SDS011;32338;50.430;6.806;2022-10-31T05:02:05;17.20;;;3.88;;
46613;SDS011;32338;50.430;6.806;2022-10-31T05:04:32;15.60;;;3.13;;
46613;SDS011;32338;50.430;6.806;2022-10-31T05:06:58;6.35;;;3.40;;
46613;SDS011;32338;50.430;6.806;2022-10-31T05:09:26;9.93;;;3.63;;
46613;SDS011;32338;50.430;6.806;2022-10-31T05:11:53;12.35;;;3.53;;
46613;SDS011;32338;50.430;6.806;2022-10-31T05:14:19;13.02;;;3.13;;
46613;SDS011;32338;50.430;6.806;2022-10-31T05:16:46;5.18;;;3.58;;
46613;SDS011;32338;50.430;6.806;2022-10-31T05:19:12;13.32;;;3.97;;
46613;SDS011;32338;50.430;6.806;2022-10-31T05:21:39;7.28;;;3.50;;
46613;SDS011;32338;50.430;6.806;2022-10-31T05:24:06;10.32;;;3.25;;
46613;SDS011;32338;50.430;6.806;2022-10-31T05:26:34;13.07;;;4.03;;
46613;SDS011;32338;50.430;6.806;2022-10-31T05:29:01;14.75;;;4.03;;
46613;SDS011;32338;50.430;6.806;2022-10-31T05:31:27;7.50;;;3.72;;
46613;SDS011;32338;50.430;6.806;2022-10-31T05:33:54;9.90;;;3.35;;
46613;SDS011;32338;50.430;6.806;2022-10-31T05:36:20;6.18;;;3.00;;
46613;SDS011;32338;50.430;6.806;2022-10-31T05:38:47;6.88;;;3.00;;
46613;SDS011;32338;50.430;6.806;2022-10-31T05:41:14;12.60;;;3.50;;
46613;SDS011;32338;50.430;6.806;2022-10-31T05:43:42;8.43;;;3.45;;
46613;SDS011;32338;50.430;6.806;2022-10-31T05:46:08;12.73;;;3.38;;
46613;SDS011;32338;50.430;6.806;2022-10-31T05:48:35;12.18;;;3.30;;
46613;SDS011;32338;50.430;6.806;2022-10-31T05:51:01;8.55;;;3.45;;
46613;SDS011;32338;50.430;6.806;2022-10-31T05:53:28;9.00;;;3.20;;
46613;SDS011;32338;50.430;6.806;2022-10-31T05:55:55;11.65;;;3.92;;
46613;SDS011;32338;50.430;6.806;2022-10-31T05:58:21;10.50;;;3.85;;
46613;SDS011;32338;50.430;6.806;2022-10-31T06:00:49;14.75;;;3.30;;
46613;SDS011;32338;50.430;6.806;2022-10-31T06:03:16;11.98;;;3.33;;
46613;SDS011;32338;50.430;6.806;2022-10-31T06:05:42;11.07;;;2.95;;
46613;SDS011;32338;50.430;6.806;2022-10-31T06:08:09;13.27;;;3.10;;
46613;SDS011;32338;50.430;6.806;2022-10-31T06:10:35;11.40;;;3.28;;
46613;SDS011;32338;50.430;6.806;2022-10-31T06:13:02;7.35;;;3.10;;
46613;SDS011;32338;50.430;6.806;2022-10-31T06:15:28;10.27;;;3.67;;
46613;SDS011;32338;50.430;6.806;2022-10-31T06:18:03;11.98;;;3.42;;
46613;SDS011;32338;50.430;6.806;2022-10-31T06:20:31;11.18;;;3.55;;
46613;SDS011;32338;50.430;6.806;2022-10-31T06:22:58;15.30;;;3.75;;
46613;SDS011;32338;50.430;6.806;2022-10-31T06:25:25;11.20;;;3.58;;
46613;SDS011;32338;50.430;6.806;2022-10-31T06:27:52;18.15;;;3.60;;
46613;SDS011;32338;50.430;6.806;2022-10-31T06:30:19;15.27;;;4.13;;
46613;SDS011;32338;50.430;6.806;2022-10-31T06:32:45;15.77;;;3.80;;
46613;SDS011;32338;50.430;6.806;2022-10-31T06:35:14;11.70;;;3.58;;
46613;SDS011;32338;50.430;6.806;2022-10-31T06:37:40;9.40;;;3.40;;
46613;SDS011;32338;50.430;6.806;2022-10-31T06:40:07;7.90;;;3.53;;
46613;SDS011;32338;50.430;6.806;2022-10-31T06:42:34;6.35;;;3.55;;
46613;SDS011;32338;50.430;6.806;2022-10-31T06:45:01;13.57;;;3.90;;
46613;SDS011;32338;50.430;6.806;2022-10-31T06:47:28;8.93;;;3.38;;
46613;SDS011;32338;50.430;6.806;2022-10-31T06:49:54;10.70;;;3.75;;
46613;SDS011;32338;50.430;6.806;2022-10-31T06:52:22;10.60;;;3.50;;
46613;SDS011;32338;50.430;6.806;2022-10-31T06:54:49;13.85;;;3.90;;
46613;SDS011;32338;50.430;6.806;2022-10-31T06:57:15;16.13;;;3.90;;
46613;SDS011;32338;50.430;6.806;2022-10-31T06:59:42;7.97;;;3.08;;
46613;SDS011;32338;50.430;6.806;2022-10-31T07:02:09;11.98;;;3.40;;
46613;SDS011;32338;50.430;6.806;2022-10-31T07:04:36;11.93;;;3.47;;
46613;SDS011;32338;50.430;6.806;2022-10-31T07:07:03;9.63;;;3.88;;
46613;SDS011;32338;50.430;6.806;2022-10-31T07:09:31;6.38;;;3.45;;
46613;SDS011;32338;50.430;6.806;2022-10-31T07:11:58;4.00;;;3.20;;
46613;SDS011;32338;50.430;6.806;2022-10-31T07:14:24;6.50;;;3.45;;
46613;SDS011;32338;50.430;6.806;2022-10-31T07:16:51;7.45;;;4.40;;
46613;SDS011;32338;50.430;6.806;2022-10-31T07:19:18;19.63;;;6.20;;
46613;SDS011;32338;50.430;6.806;2022-10-31T07:21:45;16.58;;;5.15;;
46613;SDS011;32338;50.430;6.806;2022-10-31T07:24:11;12.35;;;4.57;;
46613;SDS011;32338;50.430;6.806;2022-10-31T07:26:39;16.00;;;5.85;;
46613;SDS011;32338;50.430;6.806;2022-10-31T07:29:07;8.35;;;5.25;;
46613;SDS011;32338;50.430;6.806;2022-10-31T07:31:33;7.18;;;4.68;;
46613;SDS011;32338;50.430;6.806;2022-10-31T07:34:00;15.63;;;4.50;;
46613;SDS011;32338;50.430;6.806;2022-10-31T07:36:27;11.52;;;3.85;;
46613;SDS011;32338;50.430;6.806;2022-10-31T07:38:53;14.93;;;4.90;;
46613;SDS011;32338;50.430;6.806;2022-10-31T07:41:20;17.10;;;4.88;;
46613;SDS011;32338;50.430;6.806;2022-10-31T07:43:48;10.82;;;4.38;;
46613;SDS011;32338;50.430;6.806;2022-10-31T07:46:15;9.65;;;4.55;;
46613;SDS011;32338;50.430;6.806;2022-10-31T07:48:42;12.85;;;4.72;;
46613;SDS011;32338;50.430;6.806;2022-10-31T07:51:08;17.67;;;5.65;;
46613;SDS011;32338;50.430;6.806;2022-10-31T07:53:35;9.80;;;4.47;;
46613;SDS011;32338;50.430;6.806;2022-10-31T07:56:01;11.68;;;5.35;;
46613;SDS011;32338;50.430;6.806;2022-10-31T07:58:28;14.80;;;5.60;;
46613;SDS011;32338;50.430;6.806;2022-10-31T08:00:57;8.45;;;5.40;;
46613;SDS011;32338;50.430;6.806;2022-10-31T08:03:23;11.93;;;5.18;;
46613;SDS011;32338;50.430;6.806;2022-10-31T08:05:50;12.05;;;5.80;;
46613;SDS011;32338;50.430;6.806;2022-10-31T08:08:16;12.18;;;6.03;;
46613;SDS011;32338;50.430;6.806;2022-10-31T08:10:43;12.02;;;5.13;;
46613;SDS011;32338;50.430;6.806;2022-10-31T08:13:10;8.57;;;4.43;;
46613;SDS011;32338;50.430;6.806;2022-10-31T08:15:38;14.55;;;4.57;;
46613;SDS011;32338;50.430;6.806;2022-10-31T08:18:10;26.77;;;11.48;;
46613;SDS011;32338;50.430;6.806;2022-10-31T08:20:38;23.67;;;16.25;;
46613;SDS011;32338;50.430;6.806;2022-10-31T08:23:05;25.27;;;10.85;;
46613;SDS011;32338;50.430;6.806;2022-10-31T08:25:32;17.25;;;9.75;;
46613;SDS011;32338;50.430;6.806;2022-10-31T08:28:00;14.70;;;6.53;;
46613;SDS011;32338;50.430;6.806;2022-10-31T08:30:28;8.73;;;4.97;;
46613;SDS011;32338;50.430;6.806;2022-10-31T08:33:02;9.90;;;5.22;;
46613;SDS011;32338;50.430;6.806;2022-10-31T08:35:31;9.55;;;5.05;;
46613;SDS011;32338;50.430;6.806;2022-10-31T08:37:58;8.48;;;4.95;;
46613;SDS011;32338;50.430;6.806;2022-10-31T08:40:26;10.30;;;4.53;;
46613;SDS011;32338;50.430;6.806;2022-10-31T08:42:57;11.45;;;5.55;;
46613;SDS011;32338;50.430;6.806;2022-10-31T08:45:28;8.70;;;4.95;;
46613;SDS011;32338;50.430;6.806;2022-10-31T08:47:58;17.73;;;5.40;;
46613;SDS011;32338;50.430;6.806;2022-10-31T08:50:26;15.05;;;5.13;;
46613;SDS011;32338;50.430;6.806;2022-10-31T08:53:00;11.13;;;5.15;;
46613;SDS011;32338;50.430;6.806;2022-10-31T08:55:27;7.43;;;4.80;;
46613;SDS011;32338;50.430;6.806;2022-10-31T08:57:54;10.85;;;4.78;;
46613;SDS011;32338;50.430;6.806;2022-10-31T09:00:22;8.43;;;5.20;;
46613;SDS011;32338;50.430;6.806;2022-10-31T09:02:54;10.10;;;4.90;;
46613;SDS011;32338;50.430;6.806;2022-10-31T09:05:21;6.53;;;4.75;;
46613;SDS011;32338;50.430;6.806;2022-10-31T09:07:47;9.93;;;4.70;;
46613;SDS011;32338;50.430;6.806;2022-10-31T09:10:15;12.60;;;5.38;;
46613;SDS011;32338;50.430;6.806;2022-10-31T09:12:42;10.45;;;4.97;;
46613;SDS011;32338;50.430;6.806;2022-10-31T09:15:08;16.80;;;5.55;;
46613;SDS011;32338;50.430;6.806;2022-10-31T09:17:35;9.30;;;5.43;;
46613;SDS011;32338;50.430;6.806;2022-10-31T09:20:02;14.77;;;6.00;;
46613;SDS011;32338;50.430;6.806;2022-10-31T09:22:28;17.95;;;4.82;;
46613;SDS011;32338;50.430;6.806;2022-10-31T09:24:55;8.98;;;4.97;;
46613;SDS011;32338;50.430;6.806;2022-10-31T09:27:23;11.35;;;5.72;;
46613;SDS011;32338;50.430;6.806;2022-10-31T09:29:50;11.45;;;5.15;;
46613;SDS011;32338;50.430;6.806;2022-10-31T09:32:16;12.77;;;5.32;;
46613;SDS011;32338;50.430;6.806;2022-10-31T09:34:43;8.27;;;4.57;;
46613;SDS011;32338;50.430;6.806;2022-10-31T09:37:09;11.20;;;5.55;;
46613;SDS011;32338;50.430;6.806;2022-10-31T09:39:36;11.57;;;5.13;;
46613;SDS011;32338;50.430;6.806;2022-10-31T09:42:09;11.77;;;5.30;;
46613;SDS011;32338;50.430;6.806;2022-10-31T09:44:58;16.60;;;6.28;;
46613;SDS011;32338;50.430;6.806;2022-10-31T09:47:35;10.10;;;5.72;;
46613;SDS011;32338;50.430;6.806;2022-10-31T09:50:14;10.50;;;5.32;;
46613;SDS011;32338;50.430;6.806;2022-10-31T09:52:46;13.23;;;6.10;;
46613;SDS011;32338;50.430;6.806;2022-10-31T09:55:26;12.02;;;5.57;;
46613;SDS011;32338;50.430;6.806;2022-10-31T09:57:57;12.85;;;6.20;;
46613;SDS011;32338;50.430;6.806;2022-10-31T10:00:27;11.43;;;5.07;;
46613;SDS011;32338;50.430;6.806;2022-10-31T10:02:57;10.52;;;5.28;;
46613;SDS011;32338;50.430;6.806;2022-10-31T10:05:28;10.82;;;5.65;;
46613;SDS011;32338;50.430;6.806;2022-10-31T10:08:00;11.88;;;5.10;;
46613;SDS011;32338;50.430;6.806;2022-10-31T10:10:34;9.95;;;5.15;;
46613;SDS011;32338;50.430;6.806;2022-10-31T10:13:25;15.88;;;5.22;;
46613;SDS011;32338;50.430;6.806;2022-10-31T10:16:18;9.40;;;5.07;;
46613;SDS011;32338;50.430;6.806;2022-10-31T10:19:00;12.80;;;5.25;;
46613;SDS011;32338;50.430;6.806;2022-10-31T10:21:39;11.20;;;5.55;;
46613;SDS011;32338;50.430;6.806;2022-10-31T10:24:17;8.93;;;5.28;;
46613;SDS011;32338;50.430;6.806;2022-10-31T10:26:55;12.63;;;5.75;;
46613;SDS011;32338;50.430;6.806;2022-10-31T10:29:31;11.95;;;5.43;;
46613;SDS011;32338;50.430;6.806;2022-10-31T10:32:06;10.63;;;4.85;;
46613;SDS011;32338;50.430;6.806;2022-10-31T10:34:40;9.18;;;5.75;;
46613;SDS011;32338;50.430;6.806;2022-10-31T10:37:15;20.00;;;5.07;;
46613;SDS011;32338;50.430;6.806;2022-10-31T10:39:51;8.35;;;4.72;;
46613;SDS011;32338;50.430;6.806;2022-10-31T10:42:21;10.15;;;5.32;;
46613;SDS011;32338;50.430;6.806;2022-10-31T10:45:13;9.88;;;5.55;;
46613;SDS011;32338;50.430;6.806;2022-10-31T10:48:02;13.35;;;5.45;;
46613;SDS011;32338;50.430;6.806;2022-10-31T10:53:06;11.98;;;5.65;;
46613;SDS011;32338;50.430;6.806;2022-10-31T10:55:47;9.85;;;4.50;;
46613;SDS011;32338;50.430;6.806;2022-10-31T10:58:21;14.10;;;5.25;;
46613;SDS011;32338;50.430;6.806;2022-10-31T11:00:48;17.02;;;5.57;;
46613;SDS011;32338;50.430;6.806;2022-10-31T11:03:17;11.38;;;5.43;;
46613;SDS011;32338;50.430;6.806;2022-10-31T11:05:46;8.90;;;4.85;;
46613;SDS011;32338;50.430;6.806;2022-10-31T11:08:22;11.27;;;5.18;;
46613;SDS011;32338;50.430;6.806;2022-10-31T11:10:55;9.70;;;4.93;;
46613;SDS011;32338;50.430;6.806;2022-10-31T11:13:24;14.30;;;4.72;;
46613;SDS011;32338;50.430;6.806;2022-10-31T11:16:03;10.27;;;4.97;;
46613;SDS011;32338;50.430;6.806;2022-10-31T11:18:34;9.18;;;4.25;;
46613;SDS011;32338;50.430;6.806;2022-10-31T11:21:03;9.02;;;4.22;;
46613;SDS011;32338;50.430;6.806;2022-10-31T11:23:31;9.95;;;4.07;;
46613;SDS011;32338;50.430;6.806;2022-10-31T11:25:59;10.20;;;3.80;;
46613;SDS011;32338;50.430;6.806;2022-10-31T11:28:26;12.73;;;3.88;;
46613;SDS011;32338;50.430;6.806;2022-10-31T11:30:55;13.23;;;4.40;;
46613;SDS011;32338;50.430;6.806;2022-10-31T11:33:25;8.52;;;3.13;;
46613;SDS011;32338;50.430;6.806;2022-10-31T11:35:57;13.32;;;3.75;;
46613;SDS011;32338;50.430;6.806;2022-10-31T11:38:24;14.48;;;4.03;;
46613;SDS011;32338;50.430;6.806;2022-10-31T11:40:57;8.85;;;3.03;;
46613;SDS011;32338;50.430;6.806;2022-10-31T11:43:33;9.00;;;3.15;;
46613;SDS011;32338;50.430;6.806;2022-10-31T11:46:00;15.75;;;4.30;;
46613;SDS011;32338;50.430;6.806;2022-10-31T11:48:35;12.65;;;3.40;;
46613;SDS011;32338;50.430;6.806;2022-10-31T11:51:04;12.55;;;2.70;;
46613;SDS011;32338;50.430;6.806;2022-10-31T11:53:32;11.95;;;2.72;;
46613;SDS011;32338;50.430;6.806;2022-10-31T11:56:01;7.40;;;2.60;;
46613;SDS011;32338;50.430;6.806;2022-10-31T11:58:30;7.68;;;2.70;;
46613;SDS011;32338;50.430;6.806;2022-10-31T12:00:57;10.50;;;2.60;;
46613;SDS011;32338;50.430;6.806;2022-10-31T12:03:30;9.15;;;2.88;;
46613;SDS011;32338;50.430;6.806;2022-10-31T12:06:07;9.65;;;2.45;;
46613;SDS011;32338;50.430;6.806;2022-10-31T12:08:38;13.48;;;2.75;;
46613;SDS011;32338;50.430;6.806;2022-10-31T12:11:09;10.93;;;3.10;;
46613;SDS011;32338;50.430;6.806;2022-10-31T12:16:18;17.23;;;3.22;;
46613;SDS011;32338;50.430;6.806;2022-10-31T12:18:55;10.80;;;2.83;;
46613;SDS011;32338;50.430;6.806;2022-10-31T12:24:32;12.80;;;2.60;;
46613;SDS011;32338;50.430;6.806;2022-10-31T12:27:10;6.60;;;2.90;;
46613;SDS011;32338;50.430;6.806;2022-10-31T12:29:49;8.82;;;2.53;;
46613;SDS011;32338;50.430;6.806;2022-10-31T12:32:30;10.30;;;2.90;;
46613;SDS011;32338;50.430;6.806;2022-10-31T12:38:13;13.38;;;2.72;;
46613;SDS011;32338;50.430;6.806;2022-10-31T12:41:05;6.20;;;2.65;;
46613;SDS011;32338;50.430;6.806;2022-10-31T12:43:45;7.10;;;2.47;;
46613;SDS011;32338;50.430;6.806;2022-10-31T12:46:19;9.75;;;2.45;;
46613;SDS011;32338;50.430;6.806;2022-10-31T12:51:44;3.95;;;1.98;;
46613;SDS011;32338;50.430;6.806;2022-10-31T12:54:29;8.68;;;2.42;;
46613;SDS011;32338;50.430;6.806;2022-10-31T12:57:09;5.85;;;2.20;;
46613;SDS011;32338;50.430;6.806;2022-10-31T12:59:47;8.93;;;2.20;;
46613;SDS011;32338;50.430;6.806;2022-10-31T13:02:18;9.27;;;2.15;;
46613;SDS011;32338;50.430;6.806;2022-10-31T13:04:51;9.23;;;2.85;;
46613;SDS011;32338;50.430;6.806;2022-10-31T13:07:23;6.90;;;2.30;;
46613;SDS011;32338;50.430;6.806;2022-10-31T13:09:58;9.48;;;2.67;;
46613;SDS011;32338;50.430;6.806;2022-10-31T13:12:29;9.35;;;2.70;;
46613;SDS011;32338;50.430;6.806;2022-10-31T13:14:58;9.93;;;2.60;;
46613;SDS011;32338;50.430;6.806;2022-10-31T13:17:30;9.65;;;2.63;;
46613;SDS011;32338;50.430;6.806;2022-10-31T13:20:05;11.82;;;2.55;;
46613;SDS011;32338;50.430;6.806;2022-10-31T13:22:42;9.82;;;2.40;;
46613;SDS011;32338;50.430;6.806;2022-10-31T13:25:13;5.22;;;1.92;;
46613;SDS011;32338;50.430;6.806;2022-10-31T13:27:44;7.57;;;2.22;;
46613;SDS011;32338;50.430;6.806;2022-10-31T13:30:16;11.45;;;2.63;;
46613;SDS011;32338;50.430;6.806;2022-10-31T13:32:45;7.80;;;2.17;;
46613;SDS011;32338;50.430;6.806;2022-10-31T13:35:16;7.45;;;2.53;;
46613;SDS011;32338;50.430;6.806;2022-10-31T13:37:50;7.78;;;2.35;;
46613;SDS011;32338;50.430;6.806;2022-10-31T13:40:30;3.67;;;2.00;;
46613;SDS011;32338;50.430;6.806;2022-10-31T13:43:05;5.07;;;2.05;;
46613;SDS011;32338;50.430;6.806;2022-10-31T13:45:46;11.20;;;2.40;;
46613;SDS011;32338;50.430;6.806;2022-10-31T13:48:18;10.45;;;2.25;;
46613;SDS011;32338;50.430;6.806;2022-10-31T13:51:00;6.53;;;2.40;;
46613;SDS011;32338;50.430;6.806;2022-10-31T13:53:36;11.52;;;2.20;;
46613;SDS011;32338;50.430;6.806;2022-10-31T13:56:20;8.20;;;2.00;;
46613;SDS011;32338;50.430;6.806;2022-10-31T14:01:47;7.88;;;2.50;;
46613;SDS011;32338;50.430;6.806;2022-10-31T14:04:17;13.30;;;2.35;;
46613;SDS011;32338;50.430;6.806;2022-10-31T14:06:50;7.07;;;2.88;;
46613;SDS011;32338;50.430;6.806;2022-10-31T14:09:31;6.97;;;2.30;;
46613;SDS011;32338;50.430;6.806;2022-10-31T14:12:03;7.05;;;2.15;;
46613;SDS011;32338;50.430;6.806;2022-10-31T14:14:39;6.07;;;2.33;;
46613;SDS011;32338;50.430;6.806;2022-10-31T14:17:14;8.43;;;2.47;;
46613;SDS011;32338;50.430;6.806;2022-10-31T14:22:22;9.60;;;2.10;;
46613;SDS011;32338;50.430;6.806;2022-10-31T14:24:49;6.13;;;1.90;;
46613;SDS011;32338;50.430;6.806;2022-10-31T14:27:44;6.18;;;2.25;;
46613;SDS011;32338;50.430;6.806;2022-10-31T14:30:13;7.78;;;2.33;;
46613;SDS011;32338;50.430;6.806;2022-10-31T14:32:42;9.80;;;2.20;;
46613;SDS011;32338;50.430;6.806;2022-10-31T14:35:12;9.07;;;2.15;;
46613;SDS011;32338;50.430;6.806;2022-10-31T14:37:49;4.00;;;1.90;;
46613;SDS011;32338;50.430;6.806;2022-10-31T14:40:33;9.57;;;2.17;;
46613;SDS011;32338;50.430;6.806;2022-10-31T14:43:19;7.55;;;2.10;;
46613;SDS011;32338;50.430;6.806;2022-10-31T14:46:00;14.27;;;2.60;;
46613;SDS011;32338;50.430;6.806;2022-10-31T14:51:20;5.05;;;2.42;;
46613;SDS011;32338;50.430;6.806;2022-10-31T14:53:48;10.10;;;2.38;;
46613;SDS011;32338;50.430;6.806;2022-10-31T14:56:19;8.45;;;2.33;;
46613;SDS011;32338;50.430;6.806;2022-10-31T14:58:49;7.00;;;1.75;;
46613;SDS011;32338;50.430;6.806;2022-10-31T15:01:18;11.20;;;2.60;;
46613;SDS011;32338;50.430;6.806;2022-10-31T15:03:49;7.22;;;2.20;;
46613;SDS011;32338;50.430;6.806;2022-10-31T15:06:17;7.30;;;2.10;;
46613;SDS011;32338;50.430;6.806;2022-10-31T15:08:47;7.70;;;2.08;;
46613;SDS011;32338;50.430;6.806;2022-10-31T15:11:16;6.53;;;2.28;;
46613;SDS011;32338;50.430;6.806;2022-10-31T15:13:44;7.07;;;2.00;;
46613;SDS011;32338;50.430;6.806;2022-10-31T15:16:14;7.20;;;2.20;;
46613;SDS011;32338;50.430;6.806;2022-10-31T15:18:47;5.47;;;1.92;;
46613;SDS011;32338;50.430;6.806;2022-10-31T15:21:17;9.00;;;2.38;;
46613;SDS011;32338;50.430;6.806;2022-10-31T15:23:46;5.63;;;2.20;;
46613;SDS011;32338;50.430;6.806;2022-10-31T15:26:17;8.13;;;2.13;;
46613;SDS011;32338;50.430;6.806;2022-10-31T15:28:46;4.93;;;1.90;;